sensor_id;sensor_type;location;lat;lon;timestamp;temperature;humidity
45319;DHT22;31057;48.498;32.260;2023-04-16T00:01:30;7.30;99.90
45319;DHT22;31057;48.498;32.260;2023-04-16T00:03:32;7.30;99.90
45319;DHT22;31057;48.498;32.260;2023-04-16T00:05:34;7.30;99.90
45319;DHT22;31057;48.498;32.260;2023-04-16T00:07:36;7.30;99.90
45319;DHT22;31057;48.498;32.260;2023-04-16T00:09:38;7.40;99.90
45319;DHT22;31057;48.498;32.260;2023-04-16T00:11:40;7.30;99.90
45319;DHT22;31057;48.498;32.260;2023-04-16T00:13:42;7.30;99.90
45319;DHT22;31057;48.498;32.260;2023-04-16T00:15:44;7.40;99.90
45319;DHT22;31057;48.498;32.260;2023-04-16T00:17:46;7.40;99.90
45319;DHT22;31057;48.498;32.260;2023-04-16T00:19:48;7.40;99.90
45319;DHT22;31057;48.498;32.260;2023-04-16T00:21:50;7.40;99.90
45319;DHT22;31057;48.498;32.260;2023-04-16T00:23:52;7.40;99.90
45319;DHT22;31057;48.498;32.260;2023-04-16T00:25:54;7.40;99.90
45319;DHT22;31057;48.498;32.260;2023-04-16T00:27:57;7.30;99.90
45319;DHT22;31057;48.498;32.260;2023-04-16T00:29:59;7.30;99.90
45319;DHT22;31057;48.498;32.260;2023-04-16T00:32:01;7.30;99.90
45319;DHT22;31057;48.498;32.260;2023-04-16T00:34:03;7.30;99.90
45319;DHT22;31057;48.498;32.260;2023-04-16T00:36:05;7.30;99.90
45319;DHT22;31057;48.498;32.260;2023-04-16T00:38:08;7.30;99.90
45319;DHT22;31057;48.498;32.260;2023-04-16T00:40:10;7.30;99.90
45319;DHT22;31057;48.498;32.260;2023-04-16T00:42:11;7.30;99.90
45319;DHT22;31057;48.498;32.260;2023-04-16T00:44:13;7.30;99.90
45319;DHT22;31057;48.498;32.260;2023-04-16T00:46:15;7.40;99.90
45319;DHT22;31057;48.498;32.260;2023-04-16T00:48:20;7.30;99.90
45319;DHT22;31057;48.498;32.260;2023-04-16T00:50:22;7.40;99.90
45319;DHT22;31057;48.498;32.260;2023-04-16T00:52:24;7.30;99.90
45319;DHT22;31057;48.498;32.260;2023-04-16T00:54:27;7.30;99.90
45319;DHT22;31057;48.498;32.260;2023-04-16T00:56:31;7.30;99.90
45319;DHT22;31057;48.498;32.260;2023-04-16T00:58:34;7.30;99.90
45319;DHT22;31057;48.498;32.260;2023-04-16T01:00:36;7.30;99.90
45319;DHT22;31057;48.498;32.260;2023-04-16T01:02:38;7.30;99.90
45319;DHT22;31057;48.498;32.260;2023-04-16T01:04:40;7.30;99.90
45319;DHT22;31057;48.498;32.260;2023-04-16T01:06:42;7.40;99.90
45319;DHT22;31057;48.498;32.260;2023-04-16T01:08:45;7.30;99.90
45319;DHT22;31057;48.498;32.260;2023-04-16T01:10:47;7.30;99.90
45319;DHT22;31057;48.498;32.260;2023-04-16T01:12:49;7.30;99.90
45319;DHT22;31057;48.498;32.260;2023-04-16T01:14:51;7.40;99.90
45319;DHT22;31057;48.498;32.260;2023-04-16T01:16:53;7.40;99.90
45319;DHT22;31057;48.498;32.260;2023-04-16T01:18:55;7.30;99.90
45319;DHT22;31057;48.498;32.260;2023-04-16T01:20:57;7.30;99.90
45319;DHT22;31057;48.498;32.260;2023-04-16T01:22:59;7.30;99.90
45319;DHT22;31057;48.498;32.260;2023-04-16T01:25:01;7.30;99.90
45319;DHT22;31057;48.498;32.260;2023-04-16T01:27:03;7.30;99.90
45319;DHT22;31057;48.498;32.260;2023-04-16T01:29:05;7.30;99.90
45319;DHT22;31057;48.498;32.260;2023-04-16T01:31:07;7.30;99.90
45319;DHT22;31057;48.498;32.260;2023-04-16T01:33:12;7.30;99.90
45319;DHT22;31057;48.498;32.260;2023-04-16T01:35:15;7.20;99.90
45319;DHT22;31057;48.498;32.260;2023-04-16T01:37:18;7.30;99.90
45319;DHT22;31057;48.498;32.260;2023-04-16T01:39:20;7.30;99.90
45319;DHT22;31057;48.498;32.260;2023-04-16T01:41:23;7.20;99.90
45319;DHT22;31057;48.498;32.260;2023-04-16T01:43:24;7.30;99.90
45319;DHT22;31057;48.498;32.260;2023-04-16T01:45:26;7.30;99.90
45319;DHT22;31057;48.498;32.260;2023-04-16T01:47:28;7.30;99.90
45319;DHT22;31057;48.498;32.260;2023-04-16T01:49:30;7.30;99.90
45319;DHT22;31057;48.498;32.260;2023-04-16T01:51:32;7.30;99.90
45319;DHT22;31057;48.498;32.260;2023-04-16T01:53:35;7.30;99.90
45319;DHT22;31057;48.498;32.260;2023-04-16T01:55:37;7.30;99.90
45319;DHT22;31057;48.498;32.260;2023-04-16T01:57:39;7.30;99.90
45319;DHT22;31057;48.498;32.260;2023-04-16T01:59:41;7.20;99.90
45319;DHT22;31057;48.498;32.260;2023-04-16T02:01:43;7.30;99.90
45319;DHT22;31057;48.498;32.260;2023-04-16T02:03:46;7.30;99.90
45319;DHT22;31057;48.498;32.260;2023-04-16T02:05:48;7.30;99.90
45319;DHT22;31057;48.498;32.260;2023-04-16T02:07:50;7.30;99.90
45319;DHT22;31057;48.498;32.260;2023-04-16T02:09:52;7.30;99.90
45319;DHT22;31057;48.498;32.260;2023-04-16T02:11:54;7.30;99.90
45319;DHT22;31057;48.498;32.260;2023-04-16T02:13:56;7.30;99.90
45319;DHT22;31057;48.498;32.260;2023-04-16T02:15:58;7.30;99.90
45319;DHT22;31057;48.498;32.260;2023-04-16T02:18:00;7.30;99.90
45319;DHT22;31057;48.498;32.260;2023-04-16T02:20:02;7.30;99.90
45319;DHT22;31057;48.498;32.260;2023-04-16T02:22:06;7.30;99.90
45319;DHT22;31057;48.498;32.260;2023-04-16T02:24:08;7.30;99.90
45319;DHT22;31057;48.498;32.260;2023-04-16T02:26:10;7.30;99.90
45319;DHT22;31057;48.498;32.260;2023-04-16T02:28:15;7.30;99.90
45319;DHT22;31057;48.498;32.260;2023-04-16T02:30:18;7.30;99.90
45319;DHT22;31057;48.498;32.260;2023-04-16T02:32:20;7.30;99.90
45319;DHT22;31057;48.498;32.260;2023-04-16T02:34:23;7.40;99.90
45319;DHT22;31057;48.498;32.260;2023-04-16T02:36:24;7.40;99.90
45319;DHT22;31057;48.498;32.260;2023-04-16T02:38:28;7.40;99.90
45319;DHT22;31057;48.498;32.260;2023-04-16T02:40:30;7.40;99.90
45319;DHT22;31057;48.498;32.260;2023-04-16T02:42:32;7.30;99.90
45319;DHT22;31057;48.498;32.260;2023-04-16T02:44:34;7.30;99.90
45319;DHT22;31057;48.498;32.260;2023-04-16T02:46:36;7.30;99.90
45319;DHT22;31057;48.498;32.260;2023-04-16T02:48:38;7.30;99.90
45319;DHT22;31057;48.498;32.260;2023-04-16T02:50:39;7.30;99.90
45319;DHT22;31057;48.498;32.260;2023-04-16T02:52:41;7.30;99.90
45319;DHT22;31057;48.498;32.260;2023-04-16T02:54:43;7.30;99.90
45319;DHT22;31057;48.498;32.260;2023-04-16T02:56:45;7.30;99.90
45319;DHT22;31057;48.498;32.260;2023-04-16T02:58:47;7.30;99.90
45319;DHT22;31057;48.498;32.260;2023-04-16T03:00:50;7.30;99.90
45319;DHT22;31057;48.498;32.260;2023-04-16T03:02:52;7.30;99.90
45319;DHT22;31057;48.498;32.260;2023-04-16T03:04:54;7.30;99.90
45319;DHT22;31057;48.498;32.260;2023-04-16T03:06:56;7.20;99.90
45319;DHT22;31057;48.498;32.260;2023-04-16T03:08:58;7.20;99.90
45319;DHT22;31057;48.498;32.260;2023-04-16T03:10:59;7.20;99.90
45319;DHT22;31057;48.498;32.260;2023-04-16T03:13:02;7.30;99.90
45319;DHT22;31057;48.498;32.260;2023-04-16T03:15:05;7.20;99.90
45319;DHT22;31057;48.498;32.260;2023-04-16T03:17:07;7.20;99.90
45319;DHT22;31057;48.498;32.260;2023-04-16T03:19:09;7.30;99.90
45319;DHT22;31057;48.498;32.260;2023-04-16T03:21:11;7.20;99.90
45319;DHT22;31057;48.498;32.260;2023-04-16T03:23:13;7.20;99.90
45319;DHT22;31057;48.498;32.260;2023-04-16T03:25:15;7.30;99.90
45319;DHT22;31057;48.498;32.260;2023-04-16T03:27:16;7.30;99.90
45319;DHT22;31057;48.498;32.260;2023-04-16T03:29:18;7.30;99.90
45319;DHT22;31057;48.498;32.260;2023-04-16T03:31:23;7.30;99.90
45319;DHT22;31057;48.498;32.260;2023-04-16T03:33:25;7.30;99.90
45319;DHT22;31057;48.498;32.260;2023-04-16T03:35:27;7.30;99.90
45319;DHT22;31057;48.498;32.260;2023-04-16T03:37:29;7.30;99.90
45319;DHT22;31057;48.498;32.260;2023-04-16T03:39:32;7.30;99.90
45319;DHT22;31057;48.498;32.260;2023-04-16T03:41:35;7.30;99.90
45319;DHT22;31057;48.498;32.260;2023-04-16T03:43:37;7.30;99.90
45319;DHT22;31057;48.498;32.260;2023-04-16T03:45:43;7.30;99.90
45319;DHT22;31057;48.498;32.260;2023-04-16T03:47:45;7.30;99.90
45319;DHT22;31057;48.498;32.260;2023-04-16T03:49:53;7.30;99.90
45319;DHT22;31057;48.498;32.260;2023-04-16T03:51:55;7.30;99.90
45319;DHT22;31057;48.498;32.260;2023-04-16T03:53:56;7.40;99.90
45319;DHT22;31057;48.498;32.260;2023-04-16T03:55:58;7.30;99.90
45319;DHT22;31057;48.498;32.260;2023-04-16T03:58:00;7.40;99.90
45319;DHT22;31057;48.498;32.260;2023-04-16T04:00:04;7.40;99.90
45319;DHT22;31057;48.498;32.260;2023-04-16T04:02:06;7.40;99.90
45319;DHT22;31057;48.498;32.260;2023-04-16T04:04:08;7.40;99.90
45319;DHT22;31057;48.498;32.260;2023-04-16T04:06:10;7.40;99.90
45319;DHT22;31057;48.498;32.260;2023-04-16T04:08:12;7.40;99.90
45319;DHT22;31057;48.498;32.260;2023-04-16T04:10:14;7.40;99.90
45319;DHT22;31057;48.498;32.260;2023-04-16T04:12:17;7.40;99.90
45319;DHT22;31057;48.498;32.260;2023-04-16T04:14:19;7.40;99.90
45319;DHT22;31057;48.498;32.260;2023-04-16T04:16:21;7.40;99.90
45319;DHT22;31057;48.498;32.260;2023-04-16T04:18:23;7.30;99.90
45319;DHT22;31057;48.498;32.260;2023-04-16T04:20:25;7.30;99.90
45319;DHT22;31057;48.498;32.260;2023-04-16T04:22:27;7.40;99.90
45319;DHT22;31057;48.498;32.260;2023-04-16T04:24:28;7.50;99.90
45319;DHT22;31057;48.498;32.260;2023-04-16T04:26:30;7.50;99.90
45319;DHT22;31057;48.498;32.260;2023-04-16T04:28:33;7.40;99.90
45319;DHT22;31057;48.498;32.260;2023-04-16T04:30:35;7.40;99.90
45319;DHT22;31057;48.498;32.260;2023-04-16T04:32:37;7.40;99.90
45319;DHT22;31057;48.498;32.260;2023-04-16T04:34:39;7.50;99.90
45319;DHT22;31057;48.498;32.260;2023-04-16T04:36:41;7.50;99.90
45319;DHT22;31057;48.498;32.260;2023-04-16T04:38:43;7.50;99.90
45319;DHT22;31057;48.498;32.260;2023-04-16T04:40:45;7.50;99.90
45319;DHT22;31057;48.498;32.260;2023-04-16T04:42:47;7.50;99.90
45319;DHT22;31057;48.498;32.260;2023-04-16T04:44:49;7.50;99.90
45319;DHT22;31057;48.498;32.260;2023-04-16T04:46:51;7.50;99.90
45319;DHT22;31057;48.498;32.260;2023-04-16T04:48:53;7.50;99.90
45319;DHT22;31057;48.498;32.260;2023-04-16T04:50:55;7.40;99.90
45319;DHT22;31057;48.498;32.260;2023-04-16T04:52:57;7.40;99.90
45319;DHT22;31057;48.498;32.260;2023-04-16T04:54:58;7.50;99.90
45319;DHT22;31057;48.498;32.260;2023-04-16T04:57:01;7.50;99.90
45319;DHT22;31057;48.498;32.260;2023-04-16T04:59:03;7.50;99.90
45319;DHT22;31057;48.498;32.260;2023-04-16T05:01:05;7.50;99.90
45319;DHT22;31057;48.498;32.260;2023-04-16T05:03:08;7.50;99.90
45319;DHT22;31057;48.498;32.260;2023-04-16T05:05:13;7.50;99.90
45319;DHT22;31057;48.498;32.260;2023-04-16T05:07:15;7.60;99.90
45319;DHT22;31057;48.498;32.260;2023-04-16T05:09:16;7.60;99.90
45319;DHT22;31057;48.498;32.260;2023-04-16T05:11:20;7.50;99.90
45319;DHT22;31057;48.498;32.260;2023-04-16T05:13:22;7.60;99.90
45319;DHT22;31057;48.498;32.260;2023-04-16T05:15:24;7.60;99.90
45319;DHT22;31057;48.498;32.260;2023-04-16T05:17:25;7.50;99.90
45319;DHT22;31057;48.498;32.260;2023-04-16T05:19:27;7.50;99.90
45319;DHT22;31057;48.498;32.260;2023-04-16T05:21:29;7.60;99.90
45319;DHT22;31057;48.498;32.260;2023-04-16T05:23:31;7.60;99.90
45319;DHT22;31057;48.498;32.260;2023-04-16T05:25:33;7.60;99.90
45319;DHT22;31057;48.498;32.260;2023-04-16T05:27:36;7.70;99.90
45319;DHT22;31057;48.498;32.260;2023-04-16T05:29:37;7.70;99.90
45319;DHT22;31057;48.498;32.260;2023-04-16T05:31:39;7.60;99.90
45319;DHT22;31057;48.498;32.260;2023-04-16T05:33:41;7.70;99.90
45319;DHT22;31057;48.498;32.260;2023-04-16T05:35:43;7.70;99.90
45319;DHT22;31057;48.498;32.260;2023-04-16T05:37:45;7.60;99.90
45319;DHT22;31057;48.498;32.260;2023-04-16T05:39:47;7.70;99.90
45319;DHT22;31057;48.498;32.260;2023-04-16T05:41:49;7.70;99.90
45319;DHT22;31057;48.498;32.260;2023-04-16T05:43:51;7.70;99.90
45319;DHT22;31057;48.498;32.260;2023-04-16T05:45:53;7.70;99.90
45319;DHT22;31057;48.498;32.260;2023-04-16T05:47:55;7.60;99.90
45319;DHT22;31057;48.498;32.260;2023-04-16T05:49:57;7.70;99.90
45319;DHT22;31057;48.498;32.260;2023-04-16T05:51:59;7.60;99.90
45319;DHT22;31057;48.498;32.260;2023-04-16T05:54:01;7.70;99.90
45319;DHT22;31057;48.498;32.260;2023-04-16T05:56:03;7.70;99.90
45319;DHT22;31057;48.498;32.260;2023-04-16T05:58:05;7.80;99.90
45319;DHT22;31057;48.498;32.260;2023-04-16T06:00:07;7.80;99.90
45319;DHT22;31057;48.498;32.260;2023-04-16T06:02:10;7.80;99.90
45319;DHT22;31057;48.498;32.260;2023-04-16T06:04:12;7.60;99.90
45319;DHT22;31057;48.498;32.260;2023-04-16T06:06:14;7.60;99.90
45319;DHT22;31057;48.498;32.260;2023-04-16T06:08:16;7.70;99.90
45319;DHT22;31057;48.498;32.260;2023-04-16T06:10:18;7.60;99.90
45319;DHT22;31057;48.498;32.260;2023-04-16T06:12:20;7.70;99.90
45319;DHT22;31057;48.498;32.260;2023-04-16T06:14:21;7.70;99.90
45319;DHT22;31057;48.498;32.260;2023-04-16T06:16:23;7.70;99.90
45319;DHT22;31057;48.498;32.260;2023-04-16T06:18:25;7.70;99.90
45319;DHT22;31057;48.498;32.260;2023-04-16T06:20:28;7.80;99.90
45319;DHT22;31057;48.498;32.260;2023-04-16T06:22:30;7.80;99.90
45319;DHT22;31057;48.498;32.260;2023-04-16T06:24:31;7.90;99.90
45319;DHT22;31057;48.498;32.260;2023-04-16T06:26:33;7.90;99.90
45319;DHT22;31057;48.498;32.260;2023-04-16T06:28:36;7.80;99.90
45319;DHT22;31057;48.498;32.260;2023-04-16T06:30:38;7.80;99.90
45319;DHT22;31057;48.498;32.260;2023-04-16T06:32:41;7.80;99.90
45319;DHT22;31057;48.498;32.260;2023-04-16T06:34:43;7.80;99.90
45319;DHT22;31057;48.498;32.260;2023-04-16T06:36:48;7.80;99.90
45319;DHT22;31057;48.498;32.260;2023-04-16T06:38:50;7.90;99.90
45319;DHT22;31057;48.498;32.260;2023-04-16T06:40:52;7.90;99.90
45319;DHT22;31057;48.498;32.260;2023-04-16T06:42:55;7.90;99.90
45319;DHT22;31057;48.498;32.260;2023-04-16T06:44:57;8.00;99.90
45319;DHT22;31057;48.498;32.260;2023-04-16T06:46:59;8.10;99.90
45319;DHT22;31057;48.498;32.260;2023-04-16T06:49:02;8.20;99.90
45319;DHT22;31057;48.498;32.260;2023-04-16T06:51:04;8.20;99.90
45319;DHT22;31057;48.498;32.260;2023-04-16T06:53:06;8.20;99.90
45319;DHT22;31057;48.498;32.260;2023-04-16T06:55:08;8.10;99.90
45319;DHT22;31057;48.498;32.260;2023-04-16T06:57:10;8.00;99.90
45319;DHT22;31057;48.498;32.260;2023-04-16T06:59:12;8.00;99.90
45319;DHT22;31057;48.498;32.260;2023-04-16T07:01:14;8.00;99.90
45319;DHT22;31057;48.498;32.260;2023-04-16T07:03:16;8.10;99.90
45319;DHT22;31057;48.498;32.260;2023-04-16T07:05:18;8.10;99.90
45319;DHT22;31057;48.498;32.260;2023-04-16T07:07:20;8.00;99.90
45319;DHT22;31057;48.498;32.260;2023-04-16T07:09:22;8.10;99.90
45319;DHT22;31057;48.498;32.260;2023-04-16T07:11:24;8.20;99.90
45319;DHT22;31057;48.498;32.260;2023-04-16T07:13:27;8.20;99.90
45319;DHT22;31057;48.498;32.260;2023-04-16T07:15:28;8.10;99.90
45319;DHT22;31057;48.498;32.260;2023-04-16T07:17:30;8.20;99.90
45319;DHT22;31057;48.498;32.260;2023-04-16T07:19:32;8.10;99.90
45319;DHT22;31057;48.498;32.260;2023-04-16T07:21:34;8.20;99.90
45319;DHT22;31057;48.498;32.260;2023-04-16T07:23:36;8.30;99.90
45319;DHT22;31057;48.498;32.260;2023-04-16T07:25:38;8.40;99.90
45319;DHT22;31057;48.498;32.260;2023-04-16T07:27:40;8.50;99.90
45319;DHT22;31057;48.498;32.260;2023-04-16T07:29:42;8.70;99.90
45319;DHT22;31057;48.498;32.260;2023-04-16T07:31:46;8.80;99.90
45319;DHT22;31057;48.498;32.260;2023-04-16T07:33:48;8.90;99.90
45319;DHT22;31057;48.498;32.260;2023-04-16T07:35:50;8.90;99.90
45319;DHT22;31057;48.498;32.260;2023-04-16T07:37:52;8.90;99.90
45319;DHT22;31057;48.498;32.260;2023-04-16T07:39:54;9.00;99.90
45319;DHT22;31057;48.498;32.260;2023-04-16T07:41:58;9.00;99.90
45319;DHT22;31057;48.498;32.260;2023-04-16T07:44:00;9.00;99.90
45319;DHT22;31057;48.498;32.260;2023-04-16T07:46:02;8.90;99.90
45319;DHT22;31057;48.498;32.260;2023-04-16T07:48:04;8.80;99.90
45319;DHT22;31057;48.498;32.260;2023-04-16T07:50:07;9.00;99.90
45319;DHT22;31057;48.498;32.260;2023-04-16T07:52:09;9.20;99.90
45319;DHT22;31057;48.498;32.260;2023-04-16T07:54:11;9.30;99.90
45319;DHT22;31057;48.498;32.260;2023-04-16T07:56:13;9.40;99.90
45319;DHT22;31057;48.498;32.260;2023-04-16T07:58:14;9.40;99.90
45319;DHT22;31057;48.498;32.260;2023-04-16T08:00:16;9.60;99.90
45319;DHT22;31057;48.498;32.260;2023-04-16T08:02:18;9.40;99.90
45319;DHT22;31057;48.498;32.260;2023-04-16T08:04:20;9.80;99.90
45319;DHT22;31057;48.498;32.260;2023-04-16T08:06:26;9.90;99.90
45319;DHT22;31057;48.498;32.260;2023-04-16T08:08:28;10.10;99.90
45319;DHT22;31057;48.498;32.260;2023-04-16T08:10:31;10.10;99.90
45319;DHT22;31057;48.498;32.260;2023-04-16T08:12:34;10.10;99.90
45319;DHT22;31057;48.498;32.260;2023-04-16T08:14:36;10.30;99.90
45319;DHT22;31057;48.498;32.260;2023-04-16T08:16:38;10.20;99.90
45319;DHT22;31057;48.498;32.260;2023-04-16T08:18:41;10.30;99.90
45319;DHT22;31057;48.498;32.260;2023-04-16T08:20:43;10.10;99.90
45319;DHT22;31057;48.498;32.260;2023-04-16T08:22:45;9.90;99.90
45319;DHT22;31057;48.498;32.260;2023-04-16T08:24:47;10.10;99.90
45319;DHT22;31057;48.498;32.260;2023-04-16T08:26:49;10.10;99.90
45319;DHT22;31057;48.498;32.260;2023-04-16T08:28:51;10.10;99.90
45319;DHT22;31057;48.498;32.260;2023-04-16T08:30:53;10.10;99.90
45319;DHT22;31057;48.498;32.260;2023-04-16T08:32:55;10.00;99.90
45319;DHT22;31057;48.498;32.260;2023-04-16T08:34:57;10.00;99.90
45319;DHT22;31057;48.498;32.260;2023-04-16T08:37:00;9.70;99.90
45319;DHT22;31057;48.498;32.260;2023-04-16T08:39:02;9.80;99.90
45319;DHT22;31057;48.498;32.260;2023-04-16T08:41:05;10.10;99.90
45319;DHT22;31057;48.498;32.260;2023-04-16T08:43:11;10.40;99.90
45319;DHT22;31057;48.498;32.260;2023-04-16T08:45:16;10.60;99.90
45319;DHT22;31057;48.498;32.260;2023-04-16T08:47:18;10.80;99.90
45319;DHT22;31057;48.498;32.260;2023-04-16T08:49:24;11.00;99.90
45319;DHT22;31057;48.498;32.260;2023-04-16T08:51:29;11.10;99.90
45319;DHT22;31057;48.498;32.260;2023-04-16T08:53:42;10.90;99.90
45319;DHT22;31057;48.498;32.260;2023-04-16T08:55:49;10.90;99.90
45319;DHT22;31057;48.498;32.260;2023-04-16T08:57:58;10.90;99.90
45319;DHT22;31057;48.498;32.260;2023-04-16T09:00:00;10.90;99.90
45319;DHT22;31057;48.498;32.260;2023-04-16T09:02:03;10.90;99.90
45319;DHT22;31057;48.498;32.260;2023-04-16T09:04:06;10.70;99.90
45319;DHT22;31057;48.498;32.260;2023-04-16T09:06:09;10.60;99.90
45319;DHT22;31057;48.498;32.260;2023-04-16T09:08:11;10.60;99.90
45319;DHT22;31057;48.498;32.260;2023-04-16T09:10:14;11.00;99.90
45319;DHT22;31057;48.498;32.260;2023-04-16T09:12:17;11.00;99.90
45319;DHT22;31057;48.498;32.260;2023-04-16T09:14:20;11.30;99.90
45319;DHT22;31057;48.498;32.260;2023-04-16T09:16:24;11.60;99.90
45319;DHT22;31057;48.498;32.260;2023-04-16T09:18:26;12.00;99.90
45319;DHT22;31057;48.498;32.260;2023-04-16T09:20:29;12.10;99.90
45319;DHT22;31057;48.498;32.260;2023-04-16T09:22:31;12.50;99.90
45319;DHT22;31057;48.498;32.260;2023-04-16T09:24:33;13.00;99.90
45319;DHT22;31057;48.498;32.260;2023-04-16T09:26:35;12.80;99.90
45319;DHT22;31057;48.498;32.260;2023-04-16T09:28:55;12.70;99.90
45319;DHT22;31057;48.498;32.260;2023-04-16T09:31:19;12.90;99.90
45319;DHT22;31057;48.498;32.260;2023-04-16T09:33:21;12.70;99.90
45319;DHT22;31057;48.498;32.260;2023-04-16T09:35:25;12.70;99.90
45319;DHT22;31057;48.498;32.260;2023-04-16T09:37:30;12.70;99.90
45319;DHT22;31057;48.498;32.260;2023-04-16T09:39:32;12.80;99.90
45319;DHT22;31057;48.498;32.260;2023-04-16T09:41:34;12.30;99.90
45319;DHT22;31057;48.498;32.260;2023-04-16T09:43:37;12.10;99.90
45319;DHT22;31057;48.498;32.260;2023-04-16T09:45:50;11.50;99.90
45319;DHT22;31057;48.498;32.260;2023-04-16T09:47:52;11.50;99.90
45319;DHT22;31057;48.498;32.260;2023-04-16T09:50:02;11.40;99.90
45319;DHT22;31057;48.498;32.260;2023-04-16T09:52:07;11.50;99.90
45319;DHT22;31057;48.498;32.260;2023-04-16T09:54:09;11.50;99.90
45319;DHT22;31057;48.498;32.260;2023-04-16T09:56:11;11.50;99.90
45319;DHT22;31057;48.498;32.260;2023-04-16T09:58:17;11.60;99.90
45319;DHT22;31057;48.498;32.260;2023-04-16T10:00:19;11.90;99.90
45319;DHT22;31057;48.498;32.260;2023-04-16T10:02:27;11.90;99.90
45319;DHT22;31057;48.498;32.260;2023-04-16T10:04:30;12.10;99.90
45319;DHT22;31057;48.498;32.260;2023-04-16T10:06:41;12.00;99.90
45319;DHT22;31057;48.498;32.260;2023-04-16T10:08:45;11.90;99.90
45319;DHT22;31057;48.498;32.260;2023-04-16T10:10:50;11.20;99.90
45319;DHT22;31057;48.498;32.260;2023-04-16T10:12:56;11.60;99.90
45319;DHT22;31057;48.498;32.260;2023-04-16T10:14:58;12.00;99.90
45319;DHT22;31057;48.498;32.260;2023-04-16T10:17:02;12.00;99.90
45319;DHT22;31057;48.498;32.260;2023-04-16T10:19:05;12.20;99.90
45319;DHT22;31057;48.498;32.260;2023-04-16T10:21:07;12.50;99.90
45319;DHT22;31057;48.498;32.260;2023-04-16T10:23:09;12.50;99.90
45319;DHT22;31057;48.498;32.260;2023-04-16T10:25:12;12.70;99.90
45319;DHT22;31057;48.498;32.260;2023-04-16T10:27:14;12.70;99.90
45319;DHT22;31057;48.498;32.260;2023-04-16T10:29:19;12.80;99.90
45319;DHT22;31057;48.498;32.260;2023-04-16T10:31:21;12.80;99.90
45319;DHT22;31057;48.498;32.260;2023-04-16T10:33:30;12.60;99.90
45319;DHT22;31057;48.498;32.260;2023-04-16T10:35:32;11.70;99.90
45319;DHT22;31057;48.498;32.260;2023-04-16T10:37:36;11.70;99.90
45319;DHT22;31057;48.498;32.260;2023-04-16T10:39:38;11.70;99.90
45319;DHT22;31057;48.498;32.260;2023-04-16T10:41:41;11.80;99.90
45319;DHT22;31057;48.498;32.260;2023-04-16T10:43:45;11.50;99.90
45319;DHT22;31057;48.498;32.260;2023-04-16T10:45:47;11.20;99.90
45319;DHT22;31057;48.498;32.260;2023-04-16T10:47:49;11.10;99.90
45319;DHT22;31057;48.498;32.260;2023-04-16T10:49:51;11.30;99.90
45319;DHT22;31057;48.498;32.260;2023-04-16T10:52:03;11.20;99.90
45319;DHT22;31057;48.498;32.260;2023-04-16T10:56:10;11.90;99.90
45319;DHT22;31057;48.498;32.260;2023-04-16T10:58:29;12.40;99.90
45319;DHT22;31057;48.498;32.260;2023-04-16T11:00:48;12.80;99.90
45319;DHT22;31057;48.498;32.260;2023-04-16T11:02:52;12.50;99.90
45319;DHT22;31057;48.498;32.260;2023-04-16T11:04:56;12.30;99.90
45319;DHT22;31057;48.498;32.260;2023-04-16T11:11:48;13.60;99.90
45319;DHT22;31057;48.498;32.260;2023-04-16T11:13:54;13.60;99.90
45319;DHT22;31057;48.498;32.260;2023-04-16T11:15:57;13.50;99.90
45319;DHT22;31057;48.498;32.260;2023-04-16T11:17:59;12.70;99.90
45319;DHT22;31057;48.498;32.260;2023-04-16T11:20:01;12.40;99.90
45319;DHT22;31057;48.498;32.260;2023-04-16T11:22:04;11.90;99.90
45319;DHT22;31057;48.498;32.260;2023-04-16T11:24:11;12.30;99.90
45319;DHT22;31057;48.498;32.260;2023-04-16T11:26:27;12.80;99.90
45319;DHT22;31057;48.498;32.260;2023-04-16T11:28:32;13.10;99.90
45319;DHT22;31057;48.498;32.260;2023-04-16T11:30:36;12.80;99.90
45319;DHT22;31057;48.498;32.260;2023-04-16T11:32:38;12.50;99.90
45319;DHT22;31057;48.498;32.260;2023-04-16T11:34:44;12.10;99.90
45319;DHT22;31057;48.498;32.260;2023-04-16T11:36:48;12.20;99.90
45319;DHT22;31057;48.498;32.260;2023-04-16T11:38:50;12.90;99.90
45319;DHT22;31057;48.498;32.260;2023-04-16T11:41:02;13.20;99.90
45319;DHT22;31057;48.498;32.260;2023-04-16T11:43:12;13.30;99.90
45319;DHT22;31057;48.498;32.260;2023-04-16T11:45:15;13.30;99.90
45319;DHT22;31057;48.498;32.260;2023-04-16T11:47:18;13.20;99.90
45319;DHT22;31057;48.498;32.260;2023-04-16T11:49:28;12.60;99.90
45319;DHT22;31057;48.498;32.260;2023-04-16T11:51:30;13.00;99.90
45319;DHT22;31057;48.498;32.260;2023-04-16T11:53:33;12.40;99.90
45319;DHT22;31057;48.498;32.260;2023-04-16T11:55:42;12.10;99.90
45319;DHT22;31057;48.498;32.260;2023-04-16T11:57:46;11.90;99.90
45319;DHT22;31057;48.498;32.260;2023-04-16T11:59:48;12.10;99.90
45319;DHT22;31057;48.498;32.260;2023-04-16T12:02:03;12.20;99.90
45319;DHT22;31057;48.498;32.260;2023-04-16T12:04:05;12.10;99.90
45319;DHT22;31057;48.498;32.260;2023-04-16T12:06:08;12.50;99.90
45319;DHT22;31057;48.498;32.260;2023-04-16T12:08:11;12.50;99.90
45319;DHT22;31057;48.498;32.260;2023-04-16T12:10:13;12.30;99.90
45319;DHT22;31057;48.498;32.260;2023-04-16T12:12:28;12.50;99.90
45319;DHT22;31057;48.498;32.260;2023-04-16T12:14:33;12.70;99.90
45319;DHT22;31057;48.498;32.260;2023-04-16T12:16:35;13.00;99.90
45319;DHT22;31057;48.498;32.260;2023-04-16T12:18:57;12.90;99.90
45319;DHT22;31057;48.498;32.260;2023-04-16T12:21:03;13.40;99.90
45319;DHT22;31057;48.498;32.260;2023-04-16T12:23:06;13.50;99.90
45319;DHT22;31057;48.498;32.260;2023-04-16T12:25:18;13.30;99.90
45319;DHT22;31057;48.498;32.260;2023-04-16T12:27:20;13.40;99.90
45319;DHT22;31057;48.498;32.260;2023-04-16T12:29:26;13.80;99.90
45319;DHT22;31057;48.498;32.260;2023-04-16T12:31:36;13.30;99.90
45319;DHT22;31057;48.498;32.260;2023-04-16T12:33:39;13.20;99.90
45319;DHT22;31057;48.498;32.260;2023-04-16T12:35:41;13.40;99.90
45319;DHT22;31057;48.498;32.260;2023-04-16T12:37:44;13.20;99.90
45319;DHT22;31057;48.498;32.260;2023-04-16T12:39:46;12.80;99.90
45319;DHT22;31057;48.498;32.260;2023-04-16T12:41:48;13.20;99.90
45319;DHT22;31057;48.498;32.260;2023-04-16T12:43:50;13.30;99.90
45319;DHT22;31057;48.498;32.260;2023-04-16T12:45:52;13.50;99.90
45319;DHT22;31057;48.498;32.260;2023-04-16T12:47:54;13.80;99.90
45319;DHT22;31057;48.498;32.260;2023-04-16T12:49:57;13.50;99.90
45319;DHT22;31057;48.498;32.260;2023-04-16T12:51:59;13.10;99.90
45319;DHT22;31057;48.498;32.260;2023-04-16T12:54:01;13.10;99.90
45319;DHT22;31057;48.498;32.260;2023-04-16T12:56:03;13.30;99.90
45319;DHT22;31057;48.498;32.260;2023-04-16T12:58:05;13.70;99.90
45319;DHT22;31057;48.498;32.260;2023-04-16T13:00:09;13.70;99.90